Time;durP1;ratioP1;P1;durP2;ratioP2;P2;SDS_P1;SDS_P2;PMS_P1;PMS_P2;Temp;Humidity;BMP_temperature;BMP_pressure;BME280_temperature;BME280_humidity;BME280_pressure;Samples;Min_cycle;Max_cycle;Signal;HPM_P1;HPM_P2
2023/05/30 00:01:13;;;;;;;;;;;11.60;99.90;;;;;;5134059;27;19996;-76
2023/05/30 00:03:39;;;;;;;;;;;11.60;99.90;;;;;;5133837;27;20428;-77
2023/05/30 00:06:05;;;;;;;;;;;11.60;99.90;;;;;;5151436;27;19975;-77
2023/05/30 00:08:31;;;;;;;;;;;11.60;99.90;;;;;;5116847;27;19947;-77
2023/05/30 00:10:56;;;;;;;;;;;11.60;99.90;;;;;;5132977;27;20132;-77
2023/05/30 00:13:22;;;;;;;;;;;11.60;99.90;;;;;;5133728;27;20380;-76
2023/05/30 00:15:48;;;;;;;;;;;11.60;99.90;;;;;;5116407;27;19971;-76
2023/05/30 00:18:14;;;;;;;;;;;11.60;99.90;;;;;;5133460;27;19924;-76
2023/05/30 00:20:40;;;;;;;;;;;11.50;99.90;;;;;;5116207;27;19930;-76
2023/05/30 00:23:05;;;;;;;;;;;11.50;99.90;;;;;;5116661;27;20368;-76
2023/05/30 00:25:32;;;;;;;;;;;11.50;99.90;;;;;;5116139;27;19973;-76
2023/05/30 00:27:58;;;;;;;;;;;11.40;99.90;;;;;;5133293;27;19924;-76
2023/05/30 00:30:24;;;;;;;;;;;11.40;99.90;;;;;;5116547;27;19923;-76
2023/05/30 00:32:49;;;;;;;;;;;11.40;99.90;;;;;;5132966;27;20226;-75
2023/05/30 00:35:15;;;;;;;;;;;11.40;99.90;;;;;;5133146;27;19924;-76
2023/05/30 00:37:40;;;;;;;;;;;11.40;99.90;;;;;;5115871;27;19923;-76
2023/05/30 00:40:06;;;;;;;;;;;11.40;99.90;;;;;;5133051;27;20321;-76
2023/05/30 00:42:32;;;;;;;;;;;11.40;99.90;;;;;;5133352;27;19931;-76
2023/05/30 00:44:57;;;;;;;;;;;11.40;99.90;;;;;;5132687;27;19972;-76
2023/05/30 00:47:23;;;;;;;;;;;11.40;99.90;;;;;;5132443;27;19995;-75
2023/05/30 00:49:49;;;;;;;;;;;11.40;99.90;;;;;;5132932;27;19928;-77
2023/05/30 00:52:15;;;;;;;;;;;11.40;99.90;;;;;;5133362;27;19946;-76
2023/05/30 00:54:44;;;;;;;;;;;11.40;99.90;;;;;;5150199;27;20057;-77
2023/05/30 00:57:10;;;;;;;;;;;11.40;99.90;;;;;;5149852;27;20415;-77
2023/05/30 00:59:36;;;;;;;;;;;11.40;99.90;;;;;;5115836;27;19923;-76
2023/05/30 01:02:02;;;;;;;;;;;11.40;99.90;;;;;;5132739;27;19924;-76
2023/05/30 01:04:28;;;;;;;;;;;11.40;99.90;;;;;;5115948;27;20296;-76
2023/05/30 01:06:53;;;;;;;;;;;11.40;99.90;;;;;;5115585;27;19931;-76
2023/05/30 01:09:19;;;;;;;;;;;11.40;99.90;;;;;;5115536;27;20431;-76
2023/05/30 01:12:20;;;;;;;;;;;11.30;99.90;;;;;;5132460;27;19930;-76
2023/05/30 01:14:46;;;;;;;;;;;11.30;99.90;;;;;;5056263;28;19961;-76
2023/05/30 01:17:23;;;;;;;;;;;11.30;99.90;;;;;;5119030;27;20018;-76
2023/05/30 01:20:09;;;;;;;;;;;11.30;99.90;;;;;;5115105;27;19927;-77
2023/05/30 01:22:44;;;;;;;;;;;11.30;99.90;;;;;;5148786;27;19919;-77
2023/05/30 01:25:29;;;;;;;;;;;11.40;99.90;;;;;;5114804;27;19932;-76
2023/05/30 01:27:57;;;;;;;;;;;11.40;99.90;;;;;;5149259;27;19974;-76
2023/05/30 01:30:24;;;;;;;;;;;11.40;99.90;;;;;;5132471;27;20012;-76
2023/05/30 01:32:50;;;;;;;;;;;11.30;99.90;;;;;;5149011;27;20018;-77
2023/05/30 01:35:20;;;;;;;;;;;11.40;99.90;;;;;;5149636;27;19923;-76
2023/05/30 01:37:46;;;;;;;;;;;11.30;99.90;;;;;;5132157;27;19924;-76
2023/05/30 01:40:11;;;;;;;;;;;11.30;99.90;;;;;;5131809;27;20391;-76
2023/05/30 01:42:37;;;;;;;;;;;11.30;99.90;;;;;;5132221;27;20020;-76
2023/05/30 01:45:15;;;;;;;;;;;11.30;99.90;;;;;;5148777;27;19943;-76
2023/05/30 01:47:44;;;;;;;;;;;11.30;99.90;;;;;;5114585;27;19924;-76
2023/05/30 01:50:13;;;;;;;;;;;11.40;99.90;;;;;;5114522;27;19923;-76
2023/05/30 01:52:40;;;;;;;;;;;11.40;99.90;;;;;;5131727;27;20348;-75
2023/05/30 01:55:07;;;;;;;;;;;11.40;99.90;;;;;;5132732;27;20283;-75
2023/05/30 01:57:36;;;;;;;;;;;11.40;99.90;;;;;;5149201;27;19923;-75
2023/05/30 02:00:02;;;;;;;;;;;11.50;99.90;;;;;;5131751;28;19968;-75
2023/05/30 02:02:27;;;;;;;;;;;11.40;99.90;;;;;;5132040;28;19924;-76
2023/05/30 02:04:53;;;;;;;;;;;11.40;99.90;;;;;;5114561;28;20003;-75
2023/05/30 02:07:19;;;;;;;;;;;11.40;99.90;;;;;;5114745;28;20288;-75
2023/05/30 02:09:44;;;;;;;;;;;11.40;99.90;;;;;;5114551;28;19924;-75
2023/05/30 02:12:10;;;;;;;;;;;11.40;99.90;;;;;;5131527;28;19923;-75
2023/05/30 02:14:36;;;;;;;;;;;11.40;99.90;;;;;;5131674;28;20117;-75
2023/05/30 02:17:02;;;;;;;;;;;11.40;99.90;;;;;;5114080;28;20027;-75
2023/05/30 02:19:28;;;;;;;;;;;11.40;99.90;;;;;;5097684;28;20158;-75
2023/05/30 02:21:54;;;;;;;;;;;11.40;99.90;;;;;;5131587;28;19929;-75
2023/05/30 02:24:21;;;;;;;;;;;11.40;99.90;;;;;;5114658;28;19924;-75
2023/05/30 02:26:46;;;;;;;;;;;11.40;99.90;;;;;;5114570;28;19923;-75
2023/05/30 02:29:12;;;;;;;;;;;11.40;99.90;;;;;;5131355;28;19947;-75
2023/05/30 02:31:37;;;;;;;;;;;11.40;99.90;;;;;;5114507;28;20027;-75
2023/05/30 02:34:03;;;;;;;;;;;11.40;99.90;;;;;;5114579;27;19984;-75
2023/05/30 02:36:29;;;;;;;;;;;11.40;99.90;;;;;;5135274;27;20020;-75
2023/05/30 02:38:54;;;;;;;;;;;11.30;99.90;;;;;;5117722;27;19927;-76
2023/05/30 02:41:21;;;;;;;;;;;11.40;99.90;;;;;;5118439;27;19923;-75
2023/05/30 02:43:46;;;;;;;;;;;11.30;99.90;;;;;;5135688;27;19923;-75
2023/05/30 02:46:13;;;;;;;;;;;11.40;99.90;;;;;;5134816;27;20428;-76
2023/05/30 02:48:38;;;;;;;;;;;11.30;99.90;;;;;;5101480;27;19946;-75
2023/05/30 02:51:04;;;;;;;;;;;11.30;99.90;;;;;;5117895;27;20368;-76
2023/05/30 02:53:30;;;;;;;;;;;11.30;99.90;;;;;;5118026;27;19923;-74
2023/05/30 02:55:56;;;;;;;;;;;11.30;99.90;;;;;;5117901;27;20403;-75
2023/05/30 02:58:21;;;;;;;;;;;11.30;99.90;;;;;;5151928;27;20322;-75
2023/05/30 03:00:47;;;;;;;;;;;11.30;99.90;;;;;;5135085;27;19923;-76
2023/05/30 03:03:13;;;;;;;;;;;11.40;99.90;;;;;;5134449;27;19924;-76
2023/05/30 03:05:38;;;;;;;;;;;11.30;99.90;;;;;;5117743;27;19927;-76
2023/05/30 03:08:05;;;;;;;;;;;11.40;99.90;;;;;;5134667;27;19923;-75
2023/05/30 03:10:30;;;;;;;;;;;11.30;99.90;;;;;;5134681;27;19932;-75
2023/05/30 03:12:56;;;;;;;;;;;11.40;99.90;;;;;;5117359;27;20450;-75
2023/05/30 03:15:22;;;;;;;;;;;11.40;99.90;;;;;;5116646;27;19923;-75
2023/05/30 03:17:48;;;;;;;;;;;11.40;99.90;;;;;;5100081;27;19938;-76
2023/05/30 03:20:13;;;;;;;;;;;11.40;99.90;;;;;;5116995;27;19923;-75
2023/05/30 03:22:40;;;;;;;;;;;11.30;99.90;;;;;;5134487;27;19927;-76
2023/05/30 03:25:06;;;;;;;;;;;11.40;99.90;;;;;;5150842;27;20334;-76
2023/05/30 03:27:32;;;;;;;;;;;11.40;99.90;;;;;;5134327;27;19923;-76
2023/05/30 03:29:57;;;;;;;;;;;11.40;99.90;;;;;;5151430;27;19923;-76
2023/05/30 03:32:23;;;;;;;;;;;11.40;99.90;;;;;;5099377;27;19919;-76
2023/05/30 03:34:49;;;;;;;;;;;11.40;99.90;;;;;;5117041;27;19935;-76
2023/05/30 03:37:14;;;;;;;;;;;11.40;99.90;;;;;;5133502;27;20014;-76
2023/05/30 03:39:40;;;;;;;;;;;11.40;99.90;;;;;;5116738;27;19924;-76
2023/05/30 03:42:06;;;;;;;;;;;11.40;99.90;;;;;;5133538;27;19923;-76
2023/05/30 03:44:31;;;;;;;;;;;11.40;99.90;;;;;;5134360;27;19930;-75
2023/05/30 03:46:57;;;;;;;;;;;11.40;99.90;;;;;;5132593;27;19923;-76
2023/05/30 03:49:22;;;;;;;;;;;11.40;99.90;;;;;;5133586;27;20038;-76
2023/05/30 03:51:48;;;;;;;;;;;11.40;99.90;;;;;;5116976;27;20269;-76
2023/05/30 03:54:13;;;;;;;;;;;11.60;99.90;;;;;;5116557;27;19923;-76
2023/05/30 03:56:39;;;;;;;;;;;11.40;99.90;;;;;;5116869;27;20021;-76
2023/05/30 03:59:05;;;;;;;;;;;11.50;99.90;;;;;;5133544;27;20010;-76
2023/05/30 04:01:30;;;;;;;;;;;11.40;99.90;;;;;;5116674;27;19923;-76
2023/05/30 04:03:56;;;;;;;;;;;11.40;99.90;;;;;;5116623;27;19924;-76
2023/05/30 04:06:24;;;;;;;;;;;11.40;99.90;;;;;;5116477;27;19930;-76
2023/05/30 04:08:50;;;;;;;;;;;11.40;99.90;;;;;;5133837;27;19923;-76
2023/05/30 04:11:15;;;;;;;;;;;11.50;99.90;;;;;;5133164;27;19924;-76
2023/05/30 04:13:41;;;;;;;;;;;11.40;99.90;;;;;;5116138;27;19923;-76
2023/05/30 04:16:07;;;;;;;;;;;11.50;99.90;;;;;;5116506;27;19924;-76
2023/05/30 04:18:32;;;;;;;;;;;11.50;99.90;;;;;;5132872;27;19944;-76
2023/05/30 04:20:58;;;;;;;;;;;11.50;99.90;;;;;;5133443;27;19931;-76
2023/05/30 04:23:23;;;;;;;;;;;11.50;99.90;;;;;;5133067;27;19923;-76
2023/05/30 04:25:49;;;;;;;;;;;11.50;99.90;;;;;;5133458;27;19928;-76
2023/05/30 04:28:19;;;;;;;;;;;11.60;99.90;;;;;;5116032;27;19979;-76
2023/05/30 04:30:48;;;;;;;;;;;11.60;99.90;;;;;;5099784;27;19931;-76
2023/05/30 04:33:15;;;;;;;;;;;11.60;99.90;;;;;;5132940;27;19949;-76
2023/05/30 04:35:42;;;;;;;;;;;11.60;99.90;;;;;;5115823;27;20317;-76
2023/05/30 04:38:09;;;;;;;;;;;11.60;99.90;;;;;;5149919;27;19969;-76
2023/05/30 04:40:36;;;;;;;;;;;11.60;99.90;;;;;;5133166;27;19923;-76
2023/05/30 04:43:02;;;;;;;;;;;11.60;99.90;;;;;;5150566;27;19970;-77
2023/05/30 04:45:29;;;;;;;;;;;11.60;99.90;;;;;;5116000;27;20335;-76
2023/05/30 04:47:55;;;;;;;;;;;11.70;99.90;;;;;;5132414;27;19923;-76
2023/05/30 04:50:21;;;;;;;;;;;11.60;99.90;;;;;;5115216;27;19946;-77
2023/05/30 04:52:46;;;;;;;;;;;11.60;99.90;;;;;;5132413;27;19924;-76
2023/05/30 04:55:12;;;;;;;;;;;11.60;99.90;;;;;;5167177;27;19985;-76
2023/05/30 04:57:38;;;;;;;;;;;11.70;99.90;;;;;;5115021;27;19992;-76
2023/05/30 05:00:05;;;;;;;;;;;11.70;99.90;;;;;;5150091;27;19930;-76
2023/05/30 05:02:30;;;;;;;;;;;11.70;99.90;;;;;;5115145;27;19923;-76
2023/05/30 05:04:57;;;;;;;;;;;11.70;99.90;;;;;;5133046;27;20423;-78
2023/05/30 05:07:23;;;;;;;;;;;11.70;99.90;;;;;;5098223;27;19924;-77
2023/05/30 05:09:48;;;;;;;;;;;11.70;99.90;;;;;;5131634;27;19927;-76
2023/05/30 05:12:14;;;;;;;;;;;11.70;99.90;;;;;;5132630;27;19931;-76
2023/05/30 05:14:42;;;;;;;;;;;11.70;99.90;;;;;;5132605;27;19923;-77
2023/05/30 05:17:08;;;;;;;;;;;11.70;99.90;;;;;;5132414;27;20284;-76
2023/05/30 05:19:34;;;;;;;;;;;11.70;99.90;;;;;;5132101;27;19937;-76
2023/05/30 05:22:02;;;;;;;;;;;11.70;99.90;;;;;;5132529;27;19923;-75
2023/05/30 05:24:28;;;;;;;;;;;11.70;99.90;;;;;;5098190;27;19923;-76
2023/05/30 05:26:54;;;;;;;;;;;11.70;99.90;;;;;;5098428;27;19923;-76
2023/05/30 05:29:19;;;;;;;;;;;11.80;99.90;;;;;;5131726;27;20343;-76
2023/05/30 05:31:45;;;;;;;;;;;11.80;99.90;;;;;;5115314;27;19930;-76
2023/05/30 05:34:11;;;;;;;;;;;11.70;99.90;;;;;;5149731;27;19923;-76
2023/05/30 05:36:36;;;;;;;;;;;11.70;99.90;;;;;;5131598;27;19935;-76
2023/05/30 05:39:02;;;;;;;;;;;11.70;99.90;;;;;;5131579;27;19935;-76
2023/05/30 05:41:28;;;;;;;;;;;11.80;99.90;;;;;;5132916;27;20066;-76
2023/05/30 05:43:54;;;;;;;;;;;11.80;99.90;;;;;;5115148;27;19923;-76
2023/05/30 05:46:19;;;;;;;;;;;11.70;99.90;;;;;;5114446;27;19976;-76
2023/05/30 05:48:45;;;;;;;;;;;11.80;99.90;;;;;;5115137;27;20029;-76
2023/05/30 05:51:11;;;;;;;;;;;11.70;99.90;;;;;;5114810;27;20369;-76
2023/05/30 05:53:37;;;;;;;;;;;11.80;99.90;;;;;;5131820;27;20018;-76
2023/05/30 05:56:02;;;;;;;;;;;11.80;99.90;;;;;;5114261;28;20034;-76
2023/05/30 05:58:28;;;;;;;;;;;11.80;99.90;;;;;;5131178;28;19928;-76
2023/05/30 06:00:54;;;;;;;;;;;11.80;99.90;;;;;;5132193;28;19930;-76
2023/05/30 06:03:20;;;;;;;;;;;11.80;99.90;;;;;;5115000;28;19923;-76
2023/05/30 06:05:45;;;;;;;;;;;11.80;99.90;;;;;;5114845;28;19988;-76
2023/05/30 06:08:11;;;;;;;;;;;11.80;99.90;;;;;;5114373;27;19927;-76
2023/05/30 06:10:36;;;;;;;;;;;11.40;99.90;;;;;;5135789;27;19930;-76
2023/05/30 06:13:02;;;;;;;;;;;11.70;99.90;;;;;;5119092;27;19923;-76
2023/05/30 06:15:27;;;;;;;;;;;11.70;99.90;;;;;;5118980;27;19931;-75
2023/05/30 06:17:53;;;;;;;;;;;11.70;99.90;;;;;;5101497;27;19923;-77
2023/05/30 06:20:19;;;;;;;;;;;11.70;99.90;;;;;;5118460;27;20015;-76
2023/05/30 06:22:44;;;;;;;;;;;11.70;99.90;;;;;;5135515;27;19926;-77
2023/05/30 06:25:10;;;;;;;;;;;11.70;99.90;;;;;;5118926;27;19930;-76
2023/05/30 06:27:35;;;;;;;;;;;11.80;99.90;;;;;;5118650;27;20019;-78
2023/05/30 06:30:01;;;;;;;;;;;11.80;99.90;;;;;;5135880;27;19923;-75
2023/05/30 06:32:27;;;;;;;;;;;11.80;99.90;;;;;;5118326;27;20006;-75
2023/05/30 06:34:52;;;;;;;;;;;11.80;99.90;;;;;;5135154;27;19973;-76
2023/05/30 06:37:18;;;;;;;;;;;11.80;99.90;;;;;;5136668;27;20375;-76
2023/05/30 06:39:43;;;;;;;;;;;11.80;99.90;;;;;;5118603;27;19924;-76
2023/05/30 06:42:10;;;;;;;;;;;11.90;99.90;;;;;;5135292;27;20017;-76
2023/05/30 06:44:35;;;;;;;;;;;11.80;99.90;;;;;;5135706;27;20010;-76
2023/05/30 06:47:01;;;;;;;;;;;11.80;99.90;;;;;;5135356;27;20026;-75
2023/05/30 06:49:26;;;;;;;;;;;11.80;99.90;;;;;;5101244;27;19931;-75
2023/05/30 06:51:52;;;;;;;;;;;11.80;99.90;;;;;;5117919;27;19919;-75
2023/05/30 06:54:17;;;;;;;;;;;11.90;99.90;;;;;;5135215;27;20463;-75
2023/05/30 06:56:43;;;;;;;;;;;11.90;99.90;;;;;;5134121;27;19920;-74
2023/05/30 06:59:09;;;;;;;;;;;11.90;99.90;;;;;;5117982;27;20352;-75
2023/05/30 07:01:34;;;;;;;;;;;11.90;99.90;;;;;;5117793;27;19923;-76
2023/05/30 07:04:00;;;;;;;;;;;11.90;99.90;;;;;;5169855;27;19972;-74
2023/05/30 07:06:25;;;;;;;;;;;12.00;99.90;;;;;;5134862;27;19924;-74
2023/05/30 07:08:51;;;;;;;;;;;12.00;99.90;;;;;;5135970;27;19924;-77
2023/05/30 07:11:17;;;;;;;;;;;12.00;99.90;;;;;;5118018;27;19920;-76
2023/05/30 07:13:42;;;;;;;;;;;11.90;99.90;;;;;;5135196;27;19930;-76
2023/05/30 07:16:08;;;;;;;;;;;11.90;99.90;;;;;;5103657;27;19927;-76
2023/05/30 07:18:34;;;;;;;;;;;11.90;99.90;;;;;;5137259;27;19930;-77
2023/05/30 07:20:59;;;;;;;;;;;12.00;99.90;;;;;;5137514;27;19929;-76
2023/05/30 07:23:25;;;;;;;;;;;11.90;99.90;;;;;;5137338;27;20010;-77
2023/05/30 07:25:50;;;;;;;;;;;12.00;99.90;;;;;;5136980;27;20026;-76
2023/05/30 07:28:16;;;;;;;;;;;12.00;99.90;;;;;;5120018;27;19930;-75
2023/05/30 07:30:42;;;;;;;;;;;12.00;99.90;;;;;;5117440;27;19924;-78
2023/05/30 07:33:07;;;;;;;;;;;12.10;99.90;;;;;;5169461;27;20022;-76
2023/05/30 07:35:33;;;;;;;;;;;12.10;99.90;;;;;;5133967;27;19920;-77
2023/05/30 07:37:58;;;;;;;;;;;12.10;99.90;;;;;;5135604;27;19934;-77
2023/05/30 07:40:24;;;;;;;;;;;12.10;99.90;;;;;;5134359;27;20006;-78
2023/05/30 07:42:50;;;;;;;;;;;12.20;99.90;;;;;;5134305;27;19931;-77
2023/05/30 07:45:19;;;;;;;;;;;12.20;99.90;;;;;;5133275;27;21310;-78
2023/05/30 07:47:45;;;;;;;;;;;12.30;99.90;;;;;;5133639;27;20379;-76
2023/05/30 07:50:10;;;;;;;;;;;12.40;99.90;;;;;;5134623;27;19959;-76
2023/05/30 07:52:36;;;;;;;;;;;12.40;99.90;;;;;;5117029;27;19919;-72
2023/05/30 07:55:02;;;;;;;;;;;12.50;99.90;;;;;;5117262;27;19923;-75
2023/05/30 07:57:28;;;;;;;;;;;12.50;99.90;;;;;;5133926;27;19923;-76
2023/05/30 07:59:53;;;;;;;;;;;12.50;99.90;;;;;;5134151;27;19972;-76
2023/05/30 08:02:20;;;;;;;;;;;12.50;99.90;;;;;;5133920;27;19970;-73
2023/05/30 08:04:46;;;;;;;;;;;12.50;99.90;;;;;;5116795;27;19923;-73
2023/05/30 08:07:12;;;;;;;;;;;12.60;99.90;;;;;;5134079;27;19946;-72
2023/05/30 08:09:37;;;;;;;;;;;12.60;99.90;;;;;;5133752;27;20010;-71
2023/05/30 08:12:05;;;;;;;;;;;12.60;99.90;;;;;;5116708;27;20401;-73
2023/05/30 08:14:31;;;;;;;;;;;12.60;99.90;;;;;;5135148;27;19923;-72
2023/05/30 08:16:56;;;;;;;;;;;12.60;99.90;;;;;;5134391;27;20374;-73
2023/05/30 08:19:22;;;;;;;;;;;12.60;99.90;;;;;;5133746;27;20011;-73
2023/05/30 08:21:47;;;;;;;;;;;12.60;99.90;;;;;;5134550;27;20288;-74
2023/05/30 08:24:15;;;;;;;;;;;12.60;99.90;;;;;;5133907;27;19973;-73
2023/05/30 08:26:41;;;;;;;;;;;12.60;99.90;;;;;;5099626;27;19924;-73
2023/05/30 08:29:06;;;;;;;;;;;12.70;99.90;;;;;;5133143;27;19931;-73
2023/05/30 08:31:32;;;;;;;;;;;12.80;99.90;;;;;;5132942;27;19923;-74
2023/05/30 08:33:58;;;;;;;;;;;12.80;99.90;;;;;;5132769;27;19920;-73
2023/05/30 08:36:23;;;;;;;;;;;13.20;99.90;;;;;;5133536;27;20021;-74
2023/05/30 08:38:53;;;;;;;;;;;14.20;99.90;;;;;;5134094;27;19927;-72
2023/05/30 08:41:20;;;;;;;;;;;14.70;99.90;;;;;;5132906;27;19934;-74
2023/05/30 08:43:45;;;;;;;;;;;14.90;99.90;;;;;;5115978;27;20013;-73
2023/05/30 08:46:12;;;;;;;;;;;14.90;99.90;;;;;;5132852;27;19963;-73
2023/05/30 08:48:38;;;;;;;;;;;14.90;99.90;;;;;;5133097;27;19960;-74
2023/05/30 08:51:04;;;;;;;;;;;14.80;99.90;;;;;;5132159;27;19923;-72
2023/05/30 08:53:32;;;;;;;;;;;14.50;99.90;;;;;;5166250;27;19923;-72
2023/05/30 08:56:07;;;;;;;;;;;14.40;99.90;;;;;;5131443;27;19923;-76
2023/05/30 08:58:53;;;;;;;;;;;14.40;99.90;;;;;;5133046;27;19983;-76
2023/05/30 09:01:19;;;;;;;;;;;14.50;99.90;;;;;;5132322;27;19971;-76
2023/05/30 09:03:47;;;;;;;;;;;14.40;99.90;;;;;;5132334;27;19930;-75
2023/05/30 09:06:13;;;;;;;;;;;14.40;99.90;;;;;;5132744;27;19923;-75
2023/05/30 09:08:41;;;;;;;;;;;14.30;99.90;;;;;;5132638;27;20290;-76
2023/05/30 09:11:06;;;;;;;;;;;14.30;99.90;;;;;;5131811;27;19923;-75
2023/05/30 09:13:33;;;;;;;;;;;14.30;99.90;;;;;;5132615;27;19931;-75
2023/05/30 09:15:59;;;;;;;;;;;14.30;99.90;;;;;;5114896;27;20035;-75
2023/05/30 09:18:24;;;;;;;;;;;14.30;99.90;;;;;;5114490;27;19924;-74
2023/05/30 09:20:50;;;;;;;;;;;14.30;99.90;;;;;;5131824;27;19948;-72
2023/05/30 09:23:16;;;;;;;;;;;14.30;99.90;;;;;;5133452;27;19930;-76
2023/05/30 09:25:46;;;;;;;;;;;14.30;99.90;;;;;;5115401;27;19923;-75
2023/05/30 09:28:12;;;;;;;;;;;14.30;99.90;;;;;;5149427;27;20325;-73
2023/05/30 09:30:54;;;;;;;;;;;14.20;99.90;;;;;;5115322;27;19983;-73
2023/05/30 09:33:19;;;;;;;;;;;14.20;99.90;;;;;;5132469;27;19928;-73
2023/05/30 09:35:47;;;;;;;;;;;14.10;99.90;;;;;;5131818;27;20392;-75
2023/05/30 09:38:15;;;;;;;;;;;14.00;99.90;;;;;;5114092;27;19923;-74
2023/05/30 09:40:41;;;;;;;;;;;13.90;99.90;;;;;;5114549;27;19927;-73
2023/05/30 09:43:07;;;;;;;;;;;13.80;99.90;;;;;;5097208;27;20011;-74
2023/05/30 09:45:32;;;;;;;;;;;13.70;99.90;;;;;;5131571;27;19972;-74
2023/05/30 09:47:58;;;;;;;;;;;13.70;99.90;;;;;;5095264;27;19927;-74
2023/05/30 09:50:24;;;;;;;;;;;13.80;99.90;;;;;;5132507;27;19929;-74
2023/05/30 09:52:51;;;;;;;;;;;13.80;99.90;;;;;;5147182;27;19920;-74
2023/05/30 09:55:18;;;;;;;;;;;13.90;99.90;;;;;;5131645;27;20035;-75
2023/05/30 09:57:48;;;;;;;;;;;14.00;99.90;;;;;;5113812;27;20392;-75
2023/05/30 10:00:15;;;;;;;;;;;14.20;99.90;;;;;;5113032;28;19923;-77
2023/05/30 10:02:53;;;;;;;;;;;14.40;99.90;;;;;;5114483;28;19930;-74
2023/05/30 10:05:20;;;;;;;;;;;14.40;99.90;;;;;;5130945;28;20364;-74
2023/05/30 10:07:50;;;;;;;;;;;14.40;99.90;;;;;;5114624;28;19923;-76
2023/05/30 10:10:16;;;;;;;;;;;14.40;99.90;;;;;;5131634;28;19923;-75
2023/05/30 10:12:42;;;;;;;;;;;14.40;99.90;;;;;;5129949;28;20323;-77
2023/05/30 10:15:09;;;;;;;;;;;14.30;99.90;;;;;;5165512;27;20325;-75
2023/05/30 10:17:36;;;;;;;;;;;14.20;99.90;;;;;;5148817;27;19972;-74
2023/05/30 10:20:04;;;;;;;;;;;14.20;99.90;;;;;;5131031;28;19927;-75
2023/05/30 10:22:31;;;;;;;;;;;14.20;99.90;;;;;;5113842;28;19923;-75
2023/05/30 10:24:58;;;;;;;;;;;14.30;99.90;;;;;;5145655;27;19946;-75
2023/05/30 10:27:31;;;;;;;;;;;14.40;99.90;;;;;;5129595;28;20432;-76
2023/05/30 10:30:03;;;;;;;;;;;14.50;99.90;;;;;;5110387;28;19993;-75
2023/05/30 10:32:30;;;;;;;;;;;14.50;99.90;;;;;;5112200;28;19986;-75
2023/05/30 10:35:00;;;;;;;;;;;14.60;99.90;;;;;;5148463;27;19923;-74
2023/05/30 10:37:26;;;;;;;;;;;14.60;99.90;;;;;;5114208;28;19924;-75
2023/05/30 10:40:06;;;;;;;;;;;14.50;99.90;;;;;;5131633;28;20387;-76
2023/05/30 10:42:39;;;;;;;;;;;14.50;99.90;;;;;;5129691;28;19919;-76
2023/05/30 10:45:13;;;;;;;;;;;14.50;99.90;;;;;;5128266;28;19923;-74
2023/05/30 10:47:53;;;;;;;;;;;14.50;99.90;;;;;;5148353;27;19927;-74
2023/05/30 10:50:24;;;;;;;;;;;14.60;99.90;;;;;;5131376;28;20368;-74
2023/05/30 10:52:52;;;;;;;;;;;14.70;99.90;;;;;;5131687;28;19939;-75
2023/05/30 10:55:17;;;;;;;;;;;14.90;99.90;;;;;;5131768;27;19923;-76
2023/05/30 10:57:43;;;;;;;;;;;15.00;99.90;;;;;;5117929;27;19923;-75
2023/05/30 11:00:16;;;;;;;;;;;14.90;99.90;;;;;;5117893;27;19985;-74
2023/05/30 11:02:43;;;;;;;;;;;14.80;99.90;;;;;;5118080;27;19946;-73
2023/05/30 11:05:10;;;;;;;;;;;14.70;99.90;;;;;;5116991;27;20440;-73
2023/05/30 11:07:40;;;;;;;;;;;14.70;99.90;;;;;;5117963;27;19945;-73
2023/05/30 11:10:06;;;;;;;;;;;14.70;99.90;;;;;;5134652;27;19945;-73
2023/05/30 11:12:32;;;;;;;;;;;14.70;99.90;;;;;;5134861;27;19923;-75
2023/05/30 11:14:58;;;;;;;;;;;14.70;99.90;;;;;;5100191;27;20288;-76
2023/05/30 11:17:28;;;;;;;;;;;14.80;99.90;;;;;;5151685;27;20365;-74
2023/05/30 11:20:04;;;;;;;;;;;14.80;99.90;;;;;;5117397;27;20368;-71
2023/05/30 11:22:29;;;;;;;;;;;14.90;99.90;;;;;;5152189;27;20022;-74
2023/05/30 11:25:13;;;;;;;;;;;14.90;99.90;;;;;;5134865;27;19974;-73
2023/05/30 11:27:59;;;;;;;;;;;15.00;99.90;;;;;;5151943;27;19980;-74
2023/05/30 11:30:24;;;;;;;;;;;14.90;99.90;;;;;;5134756;27;19973;-74
2023/05/30 11:32:50;;;;;;;;;;;15.00;99.90;;;;;;5134673;27;19924;-75
2023/05/30 11:35:17;;;;;;;;;;;15.00;99.90;;;;;;5117220;27;19931;-74
2023/05/30 11:37:43;;;;;;;;;;;15.10;99.90;;;;;;5168811;27;19923;-74
2023/05/30 11:40:12;;;;;;;;;;;15.20;99.90;;;;;;5116964;27;19950;-74
2023/05/30 11:42:37;;;;;;;;;;;15.30;99.90;;;;;;5116997;27;19923;-74
2023/05/30 11:45:03;;;;;;;;;;;15.40;99.90;;;;;;5116878;27;20384;-74
2023/05/30 11:47:29;;;;;;;;;;;15.50;99.90;;;;;;5099947;27;19928;-73
2023/05/30 11:49:56;;;;;;;;;;;15.60;99.90;;;;;;5134093;27;19923;-74
2023/05/30 11:52:21;;;;;;;;;;;15.60;99.90;;;;;;5133835;27;19924;-75
2023/05/30 11:54:47;;;;;;;;;;;15.60;99.90;;;;;;5117091;27;19923;-74
2023/05/30 11:57:16;;;;;;;;;;;15.60;99.90;;;;;;5099371;27;19927;-74
2023/05/30 11:59:42;;;;;;;;;;;15.40;99.90;;;;;;5117563;27;20337;-74
2023/05/30 12:02:08;;;;;;;;;;;15.30;99.90;;;;;;5133717;27;19988;-74
2023/05/30 12:04:35;;;;;;;;;;;15.20;99.90;;;;;;5099883;27;19928;-68
2023/05/30 12:07:02;;;;;;;;;;;15.20;99.90;;;;;;5115535;27;19972;-69
2023/05/30 12:09:28;;;;;;;;;;;15.10;99.90;;;;;;5133712;27;19927;-69
2023/05/30 12:11:58;;;;;;;;;;;15.10;99.90;;;;;;5116596;27;19975;-68
2023/05/30 12:14:36;;;;;;;;;;;15.20;99.90;;;;;;5168079;27;19927;-66
2023/05/30 12:17:01;;;;;;;;;;;15.20;99.90;;;;;;5133795;27;19929;-68
2023/05/30 12:19:30;;;;;;;;;;;15.40;99.90;;;;;;5134301;27;20017;-68
2023/05/30 12:21:56;;;;;;;;;;;15.50;99.90;;;;;;5133445;27;19974;-69
2023/05/30 12:24:25;;;;;;;;;;;15.60;99.90;;;;;;5132866;27;20329;-70
2023/05/30 12:26:57;;;;;;;;;;;15.80;99.90;;;;;;5133373;27;19923;-70
2023/05/30 12:29:24;;;;;;;;;;;15.80;99.90;;;;;;5133132;27;20379;-68
2023/05/30 12:31:51;;;;;;;;;;;15.80;99.90;;;;;;5133610;27;20283;-69
2023/05/30 12:34:16;;;;;;;;;;;15.80;99.90;;;;;;5116086;27;20280;-70
2023/05/30 12:36:42;;;;;;;;;;;15.70;99.90;;;;;;5134504;27;19924;-69
2023/05/30 12:39:08;;;;;;;;;;;15.70;99.90;;;;;;5132713;27;19928;-77
2023/05/30 12:41:39;;;;;;;;;;;15.70;99.90;;;;;;5132931;27;20014;-68
2023/05/30 12:44:04;;;;;;;;;;;15.70;99.90;;;;;;5133148;27;19928;-68
2023/05/30 12:46:33;;;;;;;;;;;15.60;99.90;;;;;;5132612;27;20318;-68
2023/05/30 12:48:59;;;;;;;;;;;15.70;99.90;;;;;;5115254;27;19934;-68
2023/05/30 12:51:25;;;;;;;;;;;15.60;99.90;;;;;;5132700;27;20334;-68
2023/05/30 12:53:53;;;;;;;;;;;15.60;99.90;;;;;;5132326;27;19923;-68
2023/05/30 12:56:19;;;;;;;;;;;15.50;99.90;;;;;;5115189;27;20061;-70
2023/05/30 12:58:44;;;;;;;;;;;15.60;99.90;;;;;;5132548;27;19973;-68
2023/05/30 13:01:10;;;;;;;;;;;15.60;99.90;;;;;;5132208;27;19977;-68
2023/05/30 13:03:36;;;;;;;;;;;15.60;99.90;;;;;;5132494;27;19924;-68
2023/05/30 13:06:02;;;;;;;;;;;15.60;99.90;;;;;;5132589;27;19984;-70
2023/05/30 13:08:28;;;;;;;;;;;15.70;99.90;;;;;;5132682;27;20010;-69
2023/05/30 13:10:53;;;;;;;;;;;15.60;99.90;;;;;;5131808;27;19970;-68
2023/05/30 13:13:19;;;;;;;;;;;15.70;99.90;;;;;;5133281;27;19977;-76
2023/05/30 13:15:45;;;;;;;;;;;15.70;99.90;;;;;;5132665;27;19999;-75
2023/05/30 13:18:10;;;;;;;;;;;15.80;99.90;;;;;;5166888;27;19923;-76
2023/05/30 13:20:36;;;;;;;;;;;15.80;99.90;;;;;;5116038;27;19923;-76
2023/05/30 13:23:01;;;;;;;;;;;15.70;99.90;;;;;;5114722;27;19923;-75
2023/05/30 13:25:27;;;;;;;;;;;15.70;99.90;;;;;;5114541;27;20018;-76
2023/05/30 13:27:53;;;;;;;;;;;15.70;99.90;;;;;;5115223;27;19923;-75
2023/05/30 13:30:18;;;;;;;;;;;15.70;99.90;;;;;;5114922;27;20374;-75
2023/05/30 13:32:44;;;;;;;;;;;15.70;99.90;;;;;;5115109;27;20041;-75
2023/05/30 13:35:10;;;;;;;;;;;15.70;99.90;;;;;;5115113;27;20008;-76
2023/05/30 13:37:35;;;;;;;;;;;15.70;99.90;;;;;;5114852;27;19931;-75
2023/05/30 13:40:01;;;;;;;;;;;15.70;99.90;;;;;;5115018;27;19968;-75
2023/05/30 13:42:26;;;;;;;;;;;15.70;99.90;;;;;;5131296;27;19924;-76
2023/05/30 13:44:52;;;;;;;;;;;15.70;99.90;;;;;;5131950;27;19923;-76
2023/05/30 13:47:18;;;;;;;;;;;15.70;99.90;;;;;;5113615;27;19967;-75
2023/05/30 13:49:43;;;;;;;;;;;15.80;99.90;;;;;;5098076;27;19923;-75
2023/05/30 13:52:09;;;;;;;;;;;15.80;99.90;;;;;;5098019;28;19949;-75
2023/05/30 13:54:35;;;;;;;;;;;15.90;99.90;;;;;;5114558;27;19971;-75
2023/05/30 13:57:01;;;;;;;;;;;15.90;99.90;;;;;;5131892;27;19930;-75
2023/05/30 13:59:27;;;;;;;;;;;15.90;99.90;;;;;;5131695;27;19923;-75
2023/05/30 14:01:52;;;;;;;;;;;15.80;99.90;;;;;;5166883;27;19923;-75
2023/05/30 14:04:18;;;;;;;;;;;15.80;99.90;;;;;;5114566;28;19978;-76
2023/05/30 14:06:46;;;;;;;;;;;15.70;99.90;;;;;;5132062;28;19927;-74
2023/05/30 14:09:12;;;;;;;;;;;15.80;99.90;;;;;;5166728;27;19927;-74
2023/05/30 14:11:37;;;;;;;;;;;15.80;99.90;;;;;;5148667;27;20006;-74
2023/05/30 14:14:05;;;;;;;;;;;15.80;99.90;;;;;;5131854;28;19923;-75